.
WxDataArchive / Data Records for 2008-01-05
2008-01-04 January 2008 2008-01-06

Data Records for Saturday, 05 January 2008

Time	Temp	Chill	HIndex	Humid	Dewpt	 Wind 	HiWind	WindDir	Rain 	Barom 
-----	----	-----	------	-----	-----	------	------	-------	-----	----- 
00:00	34.7	34.7	34.7	47	16.6	1	3	248	0.00	30.141 
00:05	34.7	34.7	34.7	46	16.1	2	6	270	0.00	30.139 
00:10	34.9	34.9	34.9	47	16.7	1	4	248	0.00	30.139 
00:15	34.7	34.7	34.7	48	17.0	1	5	248	0.00	30.139 
00:20	34.7	34.7	34.7	48	17.0	1	3	270	0.00	30.138 
00:25	34.7	34.7	34.7	48	17.0	1	6	248	0.00	30.137 
00:30	34.6	34.6	34.6	48	16.9	1	3	248	0.00	30.136 
00:35	34.6	34.6	34.6	48	16.9	1	4	270	0.00	30.135 
00:40	34.6	34.6	34.6	49	17.4	1	4	248	0.00	30.135 
00:45	34.6	34.6	34.6	48	16.9	1	3	248	0.00	30.132 
00:50	34.4	34.4	34.4	50	17.7	1	4	248	0.00	30.131 
00:55	34.3	34.3	34.3	49	17.1	1	5	248	0.00	30.127 
01:00	34.3	34.3	34.3	50	17.6	1	5	248	0.00	30.125 
01:05	34.1	34.1	34.1	50	17.4	1	3	135	0.00	30.123 
01:10	34.0	34.0	34.0	50	17.3	1	4	90	0.00	30.120 
01:15	33.8	33.8	33.8	51	17.6	0	2	338	0.00	30.117 
01:20	33.7	33.7	33.7	52	18.0	0	2	338	0.00	30.116 
01:25	33.4	33.4	33.4	52	17.7	0	1	338	0.00	30.114 
01:30	33.4	33.4	33.4	52	17.7	0	1	338	0.00	30.112 
01:35	33.4	33.4	33.4	52	17.7	0	2	338	0.00	30.110 
01:40	33.4	33.4	33.4	53	18.1	0	2	315	0.00	30.110 
01:45	33.5	33.5	33.5	52	17.8	0	2	315	0.00	30.110 
01:50	33.5	33.5	33.5	53	18.2	0	3	315	0.00	30.109 
01:55	33.7	33.7	33.7	52	18.0	1	3	248	0.00	30.108 
02:00	33.8	33.8	33.8	52	18.1	1	4	248	0.00	30.108 
02:05	33.8	33.8	33.8	52	18.1	0	1	90	0.00	30.106 
02:10	33.8	33.8	33.8	52	18.1	0	3	248	0.00	30.105 
02:15	33.8	33.8	33.8	53	18.5	0	2	248	0.00	30.105 
02:20	33.8	33.8	33.8	53	18.5	0	4	248	0.00	30.105 
02:25	33.8	33.8	33.8	54	18.9	0	3	270	0.00	30.104 
02:30	33.8	33.8	33.8	53	18.5	0	3	270	0.00	30.104 
02:35	33.8	33.8	33.8	54	18.9	0	2	270	0.00	30.103 
02:40	33.8	33.8	33.8	54	18.9	0	2	270	0.00	30.102 
02:45	33.8	33.8	33.8	54	18.9	0	1	270	0.00	30.098 
02:50	33.8	33.8	33.8	55	19.4	0	3	270	0.00	30.099 
02:55	33.8	33.8	33.8	55	19.4	0	2	292	0.00	30.096 
03:00	33.8	33.8	33.8	56	19.8	0	2	270	0.00	30.095 
03:05	33.8	33.8	33.8	55	19.4	0	2	270	0.00	30.092 
03:10	34.0	34.0	34.0	55	19.6	0	2	270	0.00	30.091 
03:15	34.0	34.0	34.0	56	20.0	1	3	22	0.00	30.090 
03:20	34.1	34.1	34.1	56	20.1	1	3	315	0.00	30.089 
03:25	34.1	34.1	34.1	56	20.1	1	3	270	0.00	30.088 
03:30	34.4	34.4	34.4	56	20.3	1	5	248	0.00	30.083 
03:35	34.6	34.6	34.6	56	20.5	1	4	270	0.00	30.082 
03:40	34.6	34.6	34.6	55	20.1	1	4	270	0.00	30.079 
03:45	34.6	34.6	34.6	55	20.1	1	4	270	0.00	30.075 
03:50	34.4	34.4	34.4	56	20.3	1	6	270	0.00	30.074 
03:55	34.4	34.4	34.4	57	20.8	0	4	248	0.00	30.072 
04:00	34.3	34.3	34.3	57	20.7	0	2	292	0.00	30.067 
04:05	34.3	34.3	34.3	58	21.1	1	4	292	0.00	30.068 
04:10	34.4	34.4	34.4	59	21.6	0	4	248	0.00	30.065 
04:15	34.6	34.6	34.6	59	21.8	0	2	248	0.00	30.060 
04:20	34.6	34.6	34.6	59	21.8	0	2	270	0.00	30.059 
04:25	34.7	34.7	34.7	60	22.3	0	3	22	0.00	30.059 
04:30	34.9	34.9	34.9	60	22.4	0	2	180	0.00	30.059 
04:35	35.0	35.0	35.0	60	22.5	0	2	112	0.00	30.059 
04:40	35.0	35.0	35.0	61	22.9	0	2	248	0.00	30.058 
04:45	35.3	35.3	35.3	61	23.2	1	3	68	0.00	30.058 
04:50	35.5	35.5	35.5	61	23.4	0	2	45	0.00	30.058 
04:55	35.5	35.5	35.5	61	23.4	0	2	22	0.00	30.058 
05:00	35.8	35.8	35.8	61	23.7	1	5	315	0.00	30.059 
05:05	35.9	35.9	35.9	62	24.2	0	3	292	0.00	30.059 
05:10	36.0	36.0	36.0	61	23.9	1	5	292	0.00	30.059 
05:15	36.3	36.3	36.3	61	24.2	1	4	270	0.00	30.058 
05:20	36.5	36.5	36.5	62	24.7	1	3	270	0.00	30.057 
05:25	36.5	36.5	36.5	62	24.7	1	3	270	0.00	30.057 
05:30	36.6	36.6	36.6	62	24.8	1	4	270	0.00	30.057 
05:35	36.8	36.8	36.8	62	25.0	1	4	315	0.00	30.057 
05:40	36.9	36.9	36.9	63	25.5	1	3	292	0.00	30.057 
05:45	36.9	36.9	36.9	63	25.5	1	3	225	0.00	30.057 
05:50	36.9	36.9	36.9	64	25.9	1	3	270	0.00	30.056 
05:55	37.0	37.0	37.0	64	26.0	1	4	248	0.00	30.056 
06:00	37.0	37.0	37.0	65	26.3	0	2	248	0.00	30.057 
06:05	37.0	37.0	37.0	65	26.3	1	3	270	0.00	30.059 
06:10	37.2	37.2	37.2	64	26.2	1	5	248	0.00	30.061 
06:15	37.3	37.3	37.3	64	26.3	1	4	248	0.00	30.060 
06:20	37.3	37.3	37.3	65	26.6	0	1	248	0.00	30.060 
06:25	37.3	37.3	37.3	65	26.6	1	3	248	0.00	30.059 
06:30	37.5	37.5	37.5	65	26.8	1	4	292	0.00	30.061 
06:35	37.5	37.5	37.5	66	27.2	1	5	248	0.00	30.060 
06:40	37.6	37.6	37.6	66	27.3	1	3	248	0.00	30.062 
06:45	37.6	37.6	37.6	66	27.3	1	4	68	0.00	30.057 
06:50	37.6	37.6	37.6	66	27.3	1	3	248	0.00	30.057 
06:55	37.8	37.8	37.8	66	27.5	1	4	270	0.00	30.058 
07:00	37.8	37.8	37.8	66	27.5	1	3	270	0.00	30.057 
07:05	37.8	37.8	37.8	67	27.8	1	3	292	0.00	30.052 
07:10	37.9	37.9	37.9	67	27.9	1	4	270	0.00	30.052 
07:15	38.0	38.0	38.0	67	28.0	2	6	248	0.00	30.053 
07:20	38.2	38.2	38.2	67	28.2	1	5	270	0.00	30.052 
07:25	38.2	38.2	38.2	67	28.2	1	5	248	0.00	30.052 
07:30	38.2	38.2	38.2	67	28.2	1	5	22	0.00	30.048 
07:35	38.2	38.2	38.2	67	28.2	1	6	248	0.00	30.048 
07:40	38.3	38.3	38.3	67	28.3	2	9	248	0.00	30.051 
07:45	38.3	38.3	38.3	67	28.3	2	10	248	0.00	30.049 
07:50	38.3	38.3	38.3	66	28.0	2	7	248	0.00	30.049 
07:55	38.3	38.3	38.3	66	28.0	2	9	248	0.00	30.045 
08:00	38.3	38.3	38.3	67	28.3	2	5	270	0.00	30.046 
08:05	38.2	38.2	38.2	67	28.2	1	6	248	0.00	30.042 
08:10	38.2	38.2	38.2	67	28.2	2	7	248	0.00	30.039 
08:15	38.2	38.2	38.2	67	28.2	2	6	248	0.00	30.038 
08:20	38.0	38.0	38.0	67	28.0	1	4	270	0.00	30.038 
08:25	38.0	38.0	38.0	68	28.4	2	5	270	0.00	30.039 
08:30	38.0	38.0	38.0	68	28.4	2	5	248	0.00	30.037 
08:35	38.0	38.0	38.0	68	28.4	1	4	270	0.00	30.037 
08:40	38.0	38.0	38.0	68	28.4	2	7	248	0.00	30.036 
08:45	38.0	38.0	38.0	68	28.4	2	6	248	0.00	30.034 
08:50	38.2	38.2	38.2	68	28.6	2	5	248	0.00	30.035 
08:55	38.3	38.3	38.3	68	28.7	3	7	248	0.01	30.033 
09:00	38.3	38.3	38.3	68	28.7	2	7	248	0.00	30.032 
09:05	38.3	38.3	38.3	68	28.7	2	5	248	0.00	30.032 
09:10	38.3	38.3	38.3	69	29.0	2	10	248	0.00	30.034 
09:15	38.3	38.3	38.3	69	29.0	2	6	248	0.00	30.032 
09:20	38.5	38.5	38.5	69	29.2	2	9	270	0.00	30.031 
09:25	38.3	38.3	38.3	70	29.4	1	7	248	0.00	30.030 
09:30	38.3	38.3	38.3	70	29.4	2	9	248	0.00	30.029 
09:35	38.3	38.3	38.3	71	29.7	2	6	270	0.00	30.031 
09:40	38.3	38.3	38.3	71	29.7	2	6	248	0.00	30.029 
09:45	38.3	38.3	38.3	71	29.7	1	5	270	0.00	30.027 
09:50	38.5	38.5	38.5	71	29.9	2	10	248	0.00	30.029 
09:55	38.5	38.5	38.5	72	30.3	3	10	248	0.00	30.028 
10:00	38.5	38.5	38.5	72	30.3	2	6	248	0.00	30.029 
10:05	38.5	38.5	38.5	72	30.3	2	7	270	0.00	30.024 
10:10	38.5	38.5	38.5	72	30.3	2	10	248	0.00	30.024 
10:15	38.5	38.5	38.5	72	30.3	2	10	248	0.00	30.023 
10:20	38.6	38.6	38.6	72	30.4	2	6	225	0.00	30.022 
10:25	38.6	38.6	38.6	73	30.7	2	6	248	0.00	30.022 
10:30	38.6	38.6	38.6	73	30.7	2	7	248	0.00	30.023 
10:35	38.8	38.8	38.8	73	30.9	2	8	248	0.00	30.023 
10:40	38.8	38.8	38.8	73	30.9	2	5	248	0.00	30.024 
10:45	38.8	38.8	38.8	74	31.2	1	6	248	0.00	30.022 
10:50	38.8	38.8	38.8	75	31.6	2	9	248	0.00	30.021 
10:55	38.9	38.9	38.9	75	31.7	2	7	225	0.00	30.022 
11:00	39.1	39.1	39.1	75	31.9	3	7	270	0.00	30.021 
11:05	39.1	39.1	39.1	75	31.9	2	7	248	0.00	30.021 
11:10	39.1	39.1	39.1	76	32.2	3	8	248	0.00	30.020 
11:15	39.1	39.1	39.1	76	32.2	2	8	270	0.00	30.018 
11:20	39.2	39.2	39.2	77	32.6	3	9	248	0.00	30.017 
11:25	39.3	39.3	39.3	77	32.7	2	5	270	0.00	30.013 
11:30	39.3	39.3	39.3	77	32.7	3	10	248	0.00	30.009 
11:35	39.5	39.5	39.5	77	32.9	2	7	270	0.00	30.008 
11:40	39.5	39.5	39.5	78	33.2	3	12	225	0.00	30.007 
11:45	39.5	39.5	39.5	78	33.2	2	11	248	0.00	30.004 
11:50	39.3	39.3	39.3	79	33.3	3	11	248	0.00	30.005 
11:55	39.2	39.2	39.2	80	33.6	3	7	248	0.00	30.004 
12:00	38.9	38.9	38.9	81	33.6	2	6	248	0.00	30.004 
12:05	38.8	38.8	38.8	82	33.8	3	11	248	0.01	30.004 
12:10	38.6	38.6	38.6	83	33.9	2	5	248	0.00	30.004 
12:15	38.6	38.6	38.6	84	34.2	3	7	248	0.00	30.002 
12:20	38.5	38.5	38.5	84	34.1	2	6	248	0.00	29.999 
12:25	38.5	38.5	38.5	84	34.1	3	10	248	0.00	29.995 
12:30	38.5	38.5	38.5	85	34.4	3	10	270	0.00	29.995 
12:35	38.5	38.5	38.5	85	34.4	3	6	248	0.00	29.991 
12:40	38.3	38.3	38.3	86	34.5	2	6	248	0.00	29.991 
12:45	38.3	38.3	38.3	86	34.5	2	6	248	0.00	29.991 
12:50	38.3	38.3	38.3	87	34.8	3	9	270	0.00	29.991 
12:55	38.3	38.3	38.3	87	34.8	3	11	248	0.00	29.991 
13:00	38.3	38.3	38.3	87	34.8	2	5	270	0.00	29.990 
13:05	38.3	38.3	38.3	87	34.8	3	9	248	0.00	29.989 
13:10	38.5	38.5	38.5	87	35.0	3	6	248	0.00	29.989 
13:15	38.6	38.6	38.6	87	35.1	3	10	248	0.00	29.986 
13:20	38.6	38.6	38.6	86	34.8	3	9	270	0.00	29.985 
13:25	38.8	38.8	38.8	86	35.0	3	6	248	0.00	29.981 
13:30	38.8	35.9	38.8	86	35.0	4	12	248	0.00	29.979 
13:35	38.8	35.9	38.8	86	35.0	4	9	248	0.00	29.976 
13:40	38.8	35.1	38.8	86	35.0	5	12	270	0.00	29.977 
13:45	38.8	38.8	38.8	86	35.0	3	7	248	0.00	29.976 
13:50	38.8	38.8	38.8	86	35.0	3	6	248	0.00	29.975 
13:55	38.9	38.9	38.9	86	35.1	2	7	225	0.00	29.974 
14:00	38.9	38.9	38.9	86	35.1	3	7	248	0.00	29.972 
14:05	38.9	36.0	38.9	86	35.1	4	9	270	0.00	29.973 
14:10	39.1	39.1	39.1	85	35.0	3	9	248	0.00	29.970 
14:15	39.1	36.3	39.1	85	35.0	4	8	270	0.00	29.971 
14:20	39.1	39.1	39.1	85	35.0	3	11	248	0.00	29.969 
14:25	39.1	36.3	39.1	85	35.0	4	11	248	0.00	29.966 
14:30	39.2	39.2	39.2	85	35.1	3	9	248	0.00	29.964 
14:35	39.2	36.4	39.2	85	35.1	4	10	248	0.00	29.964 
14:40	39.2	39.2	39.2	85	35.1	3	9	248	0.00	29.965 
14:45	39.2	39.2	39.2	85	35.1	3	7	248	0.00	29.962 
14:50	39.2	39.2	39.2	85	35.1	2	6	248	0.00	29.961 
14:55	39.3	39.3	39.3	85	35.2	3	11	248	0.00	29.962 
15:00	39.3	39.3	39.3	85	35.2	3	7	248	0.00	29.960 
15:05	39.3	39.3	39.3	85	35.2	3	14	270	0.00	29.959 
15:10	39.3	39.3	39.3	85	35.2	2	6	248	0.00	29.960 
15:15	39.3	39.3	39.3	85	35.2	3	9	248	0.00	29.959 
15:20	39.5	39.5	39.5	85	35.4	3	13	248	0.00	29.958 
15:25	39.5	39.5	39.5	85	35.4	2	6	270	0.00	29.957 
15:30	39.5	39.5	39.5	86	35.7	3	10	248	0.00	29.955 
15:35	39.5	39.5	39.5	85	35.4	3	10	248	0.00	29.954 
15:40	39.5	39.5	39.5	86	35.7	2	7	248	0.00	29.955 
15:45	39.5	39.5	39.5	86	35.7	2	6	248	0.00	29.953 
15:50	39.5	39.5	39.5	86	35.7	2	7	248	0.00	29.954 
15:55	39.6	36.9	39.6	86	35.8	4	11	248	0.00	29.952 
16:00	39.5	39.5	39.5	86	35.7	2	7	248	0.00	29.955 
16:05	39.5	39.5	39.5	86	35.7	3	7	270	0.00	29.954 
16:10	39.5	36.7	39.5	86	35.7	4	10	248	0.00	29.953 
16:15	39.5	39.5	39.5	86	35.7	2	9	248	0.00	29.952 
16:20	39.5	39.5	39.5	87	36.0	3	7	248	0.00	29.950 
16:25	39.5	39.5	39.5	87	36.0	1	5	248	0.00	29.948 
16:30	39.5	39.5	39.5	87	36.0	2	6	248	0.00	29.947 
16:35	39.3	39.3	39.3	87	35.8	2	5	248	0.00	29.947 
16:40	39.3	39.3	39.3	87	35.8	1	6	270	0.00	29.945 
16:45	39.3	39.3	39.3	87	35.8	2	5	248	0.00	29.948 
16:50	39.3	39.3	39.3	87	35.8	1	4	270	0.00	29.948 
16:55	39.2	39.2	39.2	87	35.7	1	4	270	0.00	29.947 
17:00	39.2	39.2	39.2	87	35.7	1	3	248	0.00	29.945 
17:05	39.2	39.2	39.2	87	35.7	2	5	270	0.00	29.940 
17:10	39.2	39.2	39.2	87	35.7	1	11	248	0.00	29.940 
17:15	39.2	39.2	39.2	87	35.7	1	6	248	0.00	29.940 
17:20	39.2	39.2	39.2	87	35.7	1	7	248	0.00	29.943 
17:25	39.2	39.2	39.2	87	35.7	1	5	248	0.00	29.946 
17:30	39.2	39.2	39.2	87	35.7	1	4	270	0.00	29.950 
17:35	39.2	39.2	39.2	87	35.7	2	6	248	0.00	29.950 
17:40	39.3	39.3	39.3	87	35.8	1	4	248	0.00	29.952 
17:45	39.3	39.3	39.3	87	35.8	1	4	248	0.00	29.953 
17:50	39.3	39.3	39.3	87	35.8	1	3	270	0.00	29.953 
17:55	39.3	39.3	39.3	88	36.0	1	6	225	0.00	29.952 
18:00	39.3	39.3	39.3	88	36.0	1	4	270	0.00	29.953 
18:05	39.3	39.3	39.3	88	36.0	1	4	248	0.00	29.953 
18:10	39.5	39.5	39.5	88	36.2	1	6	248	0.00	29.954 
18:15	39.5	39.5	39.5	88	36.2	2	5	292	0.00	29.953 
18:20	39.5	39.5	39.5	88	36.2	2	7	270	0.00	29.954 
18:25	39.6	39.6	39.6	89	36.6	1	4	338	0.00	29.956 
18:30	39.6	39.6	39.6	89	36.6	2	7	315	0.00	29.954 
18:35	39.6	39.6	39.6	89	36.6	1	5	202	0.00	29.959 
18:40	39.6	39.6	39.6	90	36.9	2	8	248	0.00	29.958 
18:45	39.8	39.8	39.8	90	37.1	1	4	248	0.00	29.956 
18:50	39.8	39.8	39.8	90	37.1	1	5	45	0.00	29.954 
18:55	39.6	39.6	39.6	91	37.2	1	7	248	0.00	29.954 
19:00	39.8	39.8	39.8	91	37.4	1	5	270	0.00	29.954 
19:05	39.8	39.8	39.8	91	37.4	1	5	270	0.00	29.954 
19:10	39.8	39.8	39.8	92	37.7	1	4	248	0.00	29.956 
19:15	39.8	39.8	39.8	92	37.7	1	5	248	0.00	29.960 
19:20	39.8	39.8	39.8	92	37.7	1	3	248	0.00	29.963 
19:25	39.8	39.8	39.8	92	37.7	1	6	225	0.00	29.967 
19:30	39.8	39.8	39.8	92	37.7	1	6	270	0.00	29.967 
19:35	39.8	39.8	39.8	92	37.7	1	5	22	0.00	29.968 
19:40	39.8	39.8	39.8	93	37.9	1	5	270	0.00	29.969 
19:45	39.9	39.9	39.9	93	38.0	2	6	270	0.00	29.969 
19:50	39.9	39.9	39.9	93	38.0	1	5	248	0.00	29.970 
19:55	39.9	39.9	39.9	93	38.0	1	7	292	0.00	29.971 
20:00	39.9	39.9	39.9	93	38.0	1	4	270	0.00	29.969 
20:05	39.9	39.9	39.9	93	38.0	1	4	90	0.00	29.968 
20:10	39.9	39.9	39.9	93	38.0	2	6	248	0.00	29.968 
20:15	39.9	39.9	39.9	94	38.3	1	5	225	0.00	29.968 
20:20	39.9	39.9	39.9	94	38.3	1	4	292	0.00	29.968 
20:25	39.9	39.9	39.9	94	38.3	1	7	248	0.00	29.967 
20:30	39.9	39.9	39.9	94	38.3	0	3	90	0.00	29.966 
20:35	39.8	39.8	39.8	94	38.2	1	4	0	0.00	29.963 
20:40	39.8	39.8	39.8	94	38.2	1	4	270	0.00	29.962 
20:45	39.8	39.8	39.8	94	38.2	1	3	90	0.00	29.960 
20:50	39.9	39.9	39.9	94	38.3	1	4	45	0.00	29.957 
20:55	39.9	39.9	39.9	94	38.3	1	5	270	0.00	29.955 
21:00	39.9	39.9	39.9	95	38.6	1	2	112	0.00	29.954 
21:05	39.9	39.9	39.9	95	38.6	1	3	292	0.00	29.953 
21:10	39.9	39.9	39.9	95	38.6	1	3	248	0.00	29.953 
21:15	39.9	39.9	39.9	95	38.6	1	4	270	0.00	29.953 
21:20	39.9	39.9	39.9	95	38.6	1	4	90	0.00	29.953 
21:25	39.9	39.9	39.9	95	38.6	1	3	112	0.00	29.953 
21:30	40.1	40.1	40.1	95	38.8	1	6	90	0.00	29.953 
21:35	40.1	40.1	40.1	95	38.8	1	5	270	0.00	29.951 
21:40	40.1	40.1	40.1	95	38.8	1	2	338	0.00	29.951 
21:45	40.1	40.1	40.1	96	39.1	1	4	270	0.00	29.951 
21:50	40.2	40.2	40.2	96	39.2	2	7	90	0.00	29.952 
21:55	40.2	40.2	40.2	96	39.2	1	4	338	0.00	29.953 
22:00	40.2	40.2	40.2	96	39.2	1	5	270	0.00	29.953 
22:05	40.2	40.2	40.2	96	39.2	1	6	248	0.00	29.953 
22:10	40.3	40.3	40.3	96	39.3	2	4	248	0.00	29.953 
22:15	40.3	40.3	40.3	96	39.3	1	3	248	0.00	29.953 
22:20	40.3	40.3	40.3	96	39.3	1	6	248	0.00	29.953 
22:25	40.5	40.5	40.5	96	39.5	2	6	248	0.00	29.952 
22:30	40.5	40.5	40.5	96	39.5	1	7	270	0.00	29.950 
22:35	40.5	40.5	40.5	96	39.5	1	5	248	0.00	29.950 
22:40	40.6	40.6	40.6	96	39.5	2	5	248	0.00	29.950 
22:45	40.6	40.6	40.6	96	39.5	2	6	248	0.00	29.949 
22:50	40.6	40.6	40.6	96	39.5	1	6	248	0.00	29.949 
22:55	40.8	40.8	40.8	96	39.7	2	7	292	0.00	29.948 
23:00	40.8	40.8	40.8	96	39.7	1	5	248	0.00	29.946 
23:05	40.8	40.8	40.8	96	39.7	2	5	270	0.00	29.946 
23:10	40.8	40.8	40.8	96	39.7	1	5	292	0.00	29.945 
23:15	40.9	40.9	40.9	96	39.8	2	7	248	0.00	29.945 
23:20	41.1	41.1	41.1	96	40.0	2	7	270	0.00	29.947 
23:25	41.1	41.1	41.1	96	40.0	2	6	248	0.00	29.946 
23:30	41.1	41.1	41.1	96	40.0	2	7	248	0.00	29.946 
23:35	41.2	41.2	41.2	96	40.1	1	6	292	0.00	29.945 
23:40	41.2	41.2	41.2	96	40.1	1	5	248	0.00	29.947 
23:45	41.3	41.3	41.3	96	40.2	2	7	270	0.00	29.947 
23:50	41.3	41.3	41.3	96	40.2	1	7	248	0.00	29.946 
23:55	41.3	41.3	41.3	96	40.2	1	3	292	0.00	29.942 

CoCoRaHS
IN-AL-39
A2 Web Hosting
Creative Commons License
GoDaddy
Look for:

loaded 2017-10-19 12:20:28 • last modified 2010-11-18 10:43:29
Privacy PolicyDisclaimer
• wx.awcolley.com is powered by PmWiki v.2002016 •
• all content (unless otherwise noted) © 2017 A W Colley